Time;durP1;ratioP1;P1;durP2;ratioP2;P2;SDS_P1;SDS_P2;PMS_P1;PMS_P2;Temp;Humidity;BMP_temperature;BMP_pressure;BME280_temperature;BME280_humidity;BME280_pressure;Samples;Min_cycle;Max_cycle;Signal;HPM_P1;HPM_P2
2023/10/07 00:01:37;;;;;;;9.50;4.70;;;;;;;8.34;65.67;100038.57;105758;1256;72681;-81
2023/10/07 00:04:05;;;;;;;9.40;4.40;;;;;;;8.32;66.00;100035.25;105668;1257;60549;-80
2023/10/07 00:06:37;;;;;;;8.40;4.60;;;;;;;8.30;65.97;100031.50;105691;1254;60473;-79
2023/10/07 00:09:10;;;;;;;11.20;4.40;;;;;;;8.28;66.04;100021.45;105819;1254;72974;-77
2023/10/07 00:11:37;;;;;;;9.90;4.80;;;;;;;8.29;65.94;100009.24;105889;1262;69521;-78
2023/10/07 00:14:09;;;;;;;7.40;4.90;;;;;;;8.30;66.14;100003.12;105810;1259;71390;-79
2023/10/07 00:16:38;;;;;;;8.60;4.90;;;;;;;8.34;66.26;100000.66;106237;1253;60462;-79
2023/10/07 00:19:07;;;;;;;9.20;5.90;;;;;;;8.36;66.09;100003.23;106279;1259;60441;-76
2023/10/07 00:24:42;;;;;;;11.10;5.20;;;;;;;8.38;65.91;99987.16;107976;1253;69017;-80
2023/10/07 00:27:26;;;;;;;7.80;4.70;;;;;;;8.50;65.71;99987.15;109115;1253;71304;-79
2023/10/07 00:29:54;;;;;;;11.10;4.90;;;;;;;8.49;65.43;99982.11;107290;1255;60532;-81
2023/10/07 00:32:32;;;;;;;8.00;5.00;;;;;;;8.43;65.57;99978.80;106264;1261;60420;-79
2023/10/07 00:35:00;;;;;;;10.50;4.80;;;;;;;8.38;65.69;99973.25;105952;1259;73867;-79
2023/10/07 00:37:30;;;;;;;10.20;4.60;;;;;;;8.33;65.87;99969.36;105920;1259;69008;-77
2023/10/07 00:40:01;;;;;;;10.70;4.60;;;;;;;8.28;65.98;99960.80;105989;1257;72495;-79
2023/10/07 00:42:29;;;;;;;6.80;4.30;;;;;;;8.24;66.01;99954.80;105650;1260;60421;-81
2023/10/07 00:44:57;;;;;;;8.50;4.50;;;;;;;8.21;66.32;99951.56;105901;1260;61171;-79
2023/10/07 00:47:26;;;;;;;6.40;4.50;;;;;;;8.20;66.47;99953.93;105850;1259;73831;-77
2023/10/07 00:49:54;;;;;;;7.70;4.50;;;;;;;8.19;66.65;99948.80;105838;1261;70485;-78
2023/10/07 00:52:33;;;;;;;6.60;4.30;;;;;;;8.18;66.81;99941.30;106040;1257;71119;-77
2023/10/07 01:00:12;;;;;;;;;;;;;;;8.38;66.66;99938.12;107133;1259;71870;-78
2023/10/07 01:02:40;;;;;;;9.00;4.30;;;;;;;8.38;66.84;99930.67;106883;1257;68753;-80
2023/10/07 01:05:13;;;;;;;9.00;4.40;;;;;;;8.38;67.03;99923.99;106190;1259;72683;-81
2023/10/07 01:07:41;;;;;;;9.10;4.80;;;;;;;8.39;67.16;99924.59;106186;1253;60553;-79
2023/10/07 01:12:39;;;;;;;8.80;5.00;;;;;;;8.40;67.48;99911.77;106031;1253;73817;-81
2023/10/07 01:15:41;;;;;;;7.20;4.50;;;;;;;8.42;67.89;99904.86;105932;1253;69953;-79
2023/10/07 01:18:05;;;;;;;8.60;5.20;;;;;;;8.54;67.86;99902.83;105916;1259;71381;-80
2023/10/07 01:23:23;;;;;;;9.70;5.20;;;;;;;8.48;68.34;99896.98;106982;1253;60569;-77
2023/10/07 01:25:53;;;;;;;10.30;5.80;;;;;;;8.42;68.39;99890.79;109074;1253;72582;-76
2023/10/07 01:28:21;;;;;;;9.40;5.00;;;;;;;8.39;68.68;99890.67;108932;1254;67765;-79
2023/10/07 01:31:08;;;;;;;8.10;5.10;;;;;;;8.39;68.98;99884.00;106471;1254;71519;-79
2023/10/07 01:33:40;;;;;;;11.00;6.30;;;;;;;8.50;68.84;99884.88;106317;1253;60348;-79
2023/10/07 01:36:19;;;;;;;7.20;4.80;;;;;;;8.53;68.87;99868.23;106128;1254;60529;-77
2023/10/07 01:38:53;;;;;;;7.60;4.50;;;;;;;8.52;68.92;99867.42;106229;1259;75297;-79
2023/10/07 01:41:21;;;;;;;7.80;5.20;;;;;;;8.50;69.13;99851.25;105691;1253;70865;-79
2023/10/07 01:43:59;;;;;;;10.60;5.60;;;;;;;8.48;69.66;99844.19;105778;1259;70456;-81
2023/10/07 01:46:34;;;;;;;9.50;4.90;;;;;;;8.50;69.65;99831.08;105770;1257;61733;-76
2023/10/07 01:49:16;;;;;;;9.70;4.80;;;;;;;8.58;69.85;99814.55;105851;1259;60537;-77
2023/10/07 01:51:44;;;;;;;8.60;5.00;;;;;;;8.56;69.74;99795.67;105887;1259;73813;-80
2023/10/07 01:54:12;;;;;;;12.70;5.30;;;;;;;8.52;69.96;99777.55;105675;1258;70034;-79
2023/10/07 01:56:40;;;;;;;9.90;6.10;;;;;;;8.48;70.34;99776.21;105904;1259;71351;-79
2023/10/07 02:01:49;;;;;;;9.00;5.40;;;;;;;8.56;70.84;99781.73;105849;1260;60509;-81
2023/10/07 02:04:18;;;;;;;7.80;5.10;;;;;;;8.56;71.07;99787.27;105932;1253;74130;-81
2023/10/07 02:06:52;;;;;;;8.00;5.00;;;;;;;8.53;71.18;99788.60;106037;1254;69045;-81
2023/10/07 02:09:27;;;;;;;9.80;5.70;;;;;;;8.48;71.40;99777.95;106047;1259;71263;-81
2023/10/07 02:11:57;;;;;;;8.50;5.20;;;;;;;8.51;71.68;99780.30;106881;1257;60418;-81
2023/10/07 02:14:25;;;;;;;8.90;5.70;;;;;;;8.57;71.72;99788.52;107779;1256;59304;-79
2023/10/07 02:16:56;;;;;;;8.20;5.00;;;;;;;8.56;71.88;99784.05;106336;1254;73279;-81
2023/10/07 02:19:29;;;;;;;9.50;5.70;;;;;;;8.54;72.28;99784.67;106054;1254;70076;-79
2023/10/07 02:22:03;;;;;;;8.90;5.20;;;;;;;8.54;72.62;99782.29;106146;1253;72591;-84
2023/10/07 02:24:31;;;;;;;10.00;5.60;;;;;;;8.63;72.84;99771.30;108132;1254;60379;-81
2023/10/07 02:27:17;;;;;;;10.90;4.90;;;;;;;8.65;72.93;99769.05;108704;1254;58742;-82
2023/10/07 02:29:48;;;;;;;8.80;5.30;;;;;;;8.62;73.02;99760.34;107852;1256;72570;-79
2023/10/07 02:32:17;;;;;;;9.60;4.90;;;;;;;8.60;73.42;99755.21;106385;1254;70150;-81
2023/10/07 02:34:51;;;;;;;9.20;5.30;;;;;;;8.68;73.02;99739.61;106219;1257;73665;-80
2023/10/07 02:37:27;;;;;;;12.10;5.50;;;;;;;8.71;73.08;99737.55;105785;1254;60498;-81
2023/10/07 02:40:19;;;;;;;12.20;5.60;;;;;;;8.68;73.07;99745.27;105866;1254;60589;-82
2023/10/07 02:42:46;;;;;;;9.00;5.00;;;;;;;8.64;73.25;99742.77;105738;1254;72645;-80
2023/10/07 02:47:50;;;;;;;9.70;4.80;;;;;;;8.72;72.98;99733.33;105935;1260;72639;-81
2023/10/07 02:50:19;;;;;;;9.50;5.10;;;;;;;8.67;73.23;99722.33;107039;1257;61049;-80
2023/10/07 02:52:46;;;;;;;11.40;5.70;;;;;;;8.64;73.46;99718.80;107777;1253;60361;-79
2023/10/07 02:57:46;;;;;;;9.40;5.40;;;;;;;8.79;73.12;99699.80;106216;1254;68408;-79
2023/10/07 03:00:35;;;;;;;9.30;5.80;;;;;;;8.79;73.26;99696.48;106495;1260;72520;-79
2023/10/07 03:05:59;;;;;;;13.80;5.00;;;;;;;8.81;73.41;99687.18;106114;1258;60446;-81
2023/10/07 03:11:21;;;;;;;12.20;5.50;;;;;;;8.85;73.29;99670.34;105862;1259;69500;-78
2023/10/07 03:13:57;;;;;;;10.00;5.20;;;;;;;8.82;73.27;99669.48;105772;1260;72748;-81
2023/10/07 03:16:43;;;;;;;13.50;5.40;;;;;;;8.83;73.40;99667.09;106097;1259;61073;-80
2023/10/07 03:19:20;;;;;;;7.90;5.20;;;;;;;8.93;73.28;99661.14;105699;1259;60333;-79
2023/10/07 03:21:55;;;;;;;8.10;4.50;;;;;;;8.94;73.33;99645.67;106390;1260;72075;-80
2023/10/07 03:24:40;;;;;;;10.70;5.10;;;;;;;8.93;73.46;99643.23;108359;1253;69146;-79
2023/10/07 03:27:21;;;;;;;10.50;5.30;;;;;;;8.97;73.46;99631.54;109137;1259;71063;-80
2023/10/07 03:29:59;;;;;;;7.60;4.70;;;;;;;9.10;73.19;99619.73;108369;1254;60440;-80
2023/10/07 03:32:32;;;;;;;9.40;5.60;;;;;;;9.17;72.76;99612.97;106192;1259;59515;-77
2023/10/07 03:35:01;;;;;;;8.90;5.10;;;;;;;9.17;72.78;99611.36;105806;1259;72542;-77
2023/10/07 03:37:28;;;;;;;9.80;5.50;;;;;;;9.16;72.77;99609.24;105750;1260;70179;-77
2023/10/07 03:42:44;;;;;;;10.40;5.60;;;;;;;9.29;72.27;99607.38;105762;1257;61054;-76
2023/10/07 03:45:14;;;;;;;6.80;4.60;;;;;;;9.33;72.02;99605.73;105677;1254;60604;-80
2023/10/07 03:47:46;;;;;;;9.80;5.40;;;;;;;9.30;72.23;99592.77;105551;1262;73862;-80
2023/10/07 03:53:05;;;;;;;9.30;4.70;;;;;;;9.30;72.12;99584.61;105717;1260;73001;-81
2023/10/07 03:55:37;;;;;;;9.00;5.10;;;;;;;9.34;72.29;99567.18;105851;1259;60418;-78
2023/10/07 03:58:05;;;;;;;10.00;5.50;;;;;;;9.31;72.05;99562.05;105916;1259;60594;-80
2023/10/07 04:00:35;;;;;;;12.60;5.20;;;;;;;9.27;72.39;99562.32;105752;1261;72566;-80
2023/10/07 04:03:07;;;;;;;8.20;4.40;;;;;;;9.30;72.31;99554.52;106218;1259;72411;-79
2023/10/07 04:05:36;;;;;;;8.50;4.90;;;;;;;9.35;71.78;99534.96;106532;1257;73009;-80
2023/10/07 04:08:03;;;;;;;10.00;5.20;;;;;;;9.31;71.91;99521.06;106082;1260;60418;-79
2023/10/07 04:10:36;;;;;;;12.00;5.70;;;;;;;9.25;72.08;99522.17;105867;1258;60317;-80
2023/10/07 04:13:07;;;;;;;;;;;;;;;9.24;72.05;99519.63;105960;1261;74694;-81
2023/10/07 04:15:45;;;;;;;9.80;6.20;;;;;;;9.33;71.95;99508.80;105803;1259;68884;-80
2023/10/07 04:18:17;;;;;;;10.70;4.90;;;;;;;9.34;71.63;99501.94;105840;1259;70775;-81
2023/10/07 04:20:56;;;;;;;8.20;4.80;;;;;;;9.32;71.63;99495.52;106311;1259;60552;-80
2023/10/07 04:23:24;;;;;;;10.40;5.10;;;;;;;9.30;71.67;99496.95;108523;1254;59852;-81
2023/10/07 04:26:05;;;;;;;11.80;5.30;;;;;;;9.35;71.70;99502.27;108953;1254;72587;-81
2023/10/07 04:28:39;;;;;;;;;;;;;;;9.42;71.16;99481.45;107806;1255;67757;-81
2023/10/07 04:31:11;;;;;;;9.90;5.20;;;;;;;9.41;71.08;99476.27;106536;1260;71540;-82
2023/10/07 04:33:40;;;;;;;9.40;4.80;;;;;;;9.38;71.22;99480.46;106250;1260;60460;-81
2023/10/07 04:36:14;;;;;;;9.40;5.00;;;;;;;9.36;71.20;99478.11;106008;1260;60667;-81
2023/10/07 04:38:56;;;;;;;8.30;5.10;;;;;;;9.40;71.30;99474.95;105556;1254;71388;-80
2023/10/07 04:44:20;;;;;;;8.80;5.40;;;;;;;9.40;71.38;99461.04;107208;1260;71865;-82
2023/10/07 04:46:58;;;;;;;12.90;6.40;;;;;;;9.35;71.41;99458.77;106457;1259;61090;-81
2023/10/07 04:49:55;;;;;;;12.00;5.00;;;;;;;9.36;71.53;99432.45;106304;1255;60553;-80
2023/10/07 04:52:19;;;;;;;10.60;4.80;;;;;;;9.43;71.17;99447.09;109283;1259;73135;-81
2023/10/07 04:54:48;;;;;;;7.40;4.90;;;;;;;9.43;71.14;99432.23;109202;1254;69020;-82
2023/10/07 04:57:42;;;;;;;9.70;5.50;;;;;;;9.43;71.19;99422.13;107814;1258;71347;-82
2023/10/07 05:00:09;;;;;;;8.40;5.00;;;;;;;9.43;71.32;99415.92;106196;1261;61112;-80
2023/10/07 05:02:38;;;;;;;10.10;5.50;;;;;;;9.51;71.10;99410.31;106545;1257;61058;-83
2023/10/07 05:05:13;;;;;;;9.20;4.90;;;;;;;9.61;71.02;99419.17;105726;1260;72556;-82
2023/10/07 05:07:43;;;;;;;10.30;5.00;;;;;;;9.63;71.06;99405.27;106221;1260;70595;-81
2023/10/07 05:10:11;;;;;;;13.10;5.40;;;;;;;9.63;71.14;99397.82;106375;1264;71653;-82
2023/10/07 05:12:39;;;;;;;11.50;5.30;;;;;;;9.63;71.15;99391.28;106409;1260;60577;-81
2023/10/07 05:15:08;;;;;;;11.60;5.50;;;;;;;9.74;71.25;99399.99;106594;1256;60036;-82
2023/10/07 05:17:36;;;;;;;12.90;5.50;;;;;;;9.83;71.02;99393.88;106648;1256;73856;-82
2023/10/07 05:20:26;;;;;;;14.10;5.70;;;;;;;9.84;71.02;99384.25;106776;1260;70215;-80
2023/10/07 05:22:55;;;;;;;11.90;4.70;;;;;;;9.86;70.88;99367.59;107274;1257;73400;-82
2023/10/07 05:25:23;;;;;;;9.40;5.20;;;;;;;9.92;70.99;99378.52;108606;1258;60529;-83
2023/10/07 05:27:50;;;;;;;9.70;4.10;;;;;;;10.10;70.80;99364.48;109178;1255;58764;-83
2023/10/07 05:30:18;;;;;;;10.50;5.40;;;;;;;10.20;70.32;99357.30;109261;1255;72579;-82
2023/10/07 05:32:46;;;;;;;13.50;5.60;;;;;;;10.26;70.37;99352.95;108812;1257;71121;-84
2023/10/07 05:35:18;;;;;;;10.20;4.70;;;;;;;10.30;70.33;99353.59;107669;1256;71767;-81
2023/10/07 05:37:47;;;;;;;10.50;4.90;;;;;;;10.34;70.17;99342.81;108241;1257;60961;-82
2023/10/07 05:40:16;;;;;;;11.60;5.10;;;;;;;10.46;71.06;99326.99;106557;1259;60326;-81
2023/10/07 05:42:44;;;;;;;10.50;5.40;;;;;;;10.55;70.83;99310.57;106305;1262;72414;-79
2023/10/07 05:45:14;;;;;;;14.90;6.00;;;;;;;10.55;70.72;99316.77;106325;1258;68694;-81
2023/10/07 05:47:43;;;;;;;7.40;4.90;;;;;;;10.53;70.45;99313.84;106074;1257;71509;-81
2023/10/07 05:50:12;;;;;;;9.30;4.70;;;;;;;10.54;70.44;99302.02;105724;1260;60560;-80
2023/10/07 05:52:39;;;;;;;12.50;5.20;;;;;;;10.63;70.48;99285.33;105769;1261;60559;-81
2023/10/07 05:55:10;;;;;;;7.70;4.80;;;;;;;10.71;71.96;99294.73;105766;1260;72631;-79
2023/10/07 05:57:37;;;;;;;8.40;4.30;;;;;;;10.68;72.18;99279.67;105905;1260;68736;-79
2023/10/07 06:00:09;;;;;;;9.80;4.40;;;;;;;10.62;72.67;99283.44;105850;1262;71507;-80
2023/10/07 06:02:40;;;;;;;10.50;5.00;;;;;;;10.64;73.09;99291.92;105597;1264;60636;-80
2023/10/07 06:05:10;;;;;;;10.10;4.70;;;;;;;10.65;73.78;99274.45;105873;1259;60460;-81
2023/10/07 06:07:41;;;;;;;10.30;4.50;;;;;;;10.62;74.35;99276.45;106218;1260;73784;-80
2023/10/07 06:10:12;;;;;;;9.80;4.80;;;;;;;10.53;75.03;99269.71;106023;1261;68871;-78
2023/10/07 06:12:40;;;;;;;10.00;4.90;;;;;;;10.44;76.69;99270.95;105801;1260;74236;-80
2023/10/07 06:15:08;;;;;;;10.60;5.20;;;;;;;10.35;77.34;99275.83;105815;1257;60499;-81
2023/10/07 06:17:36;;;;;;;10.10;5.10;;;;;;;10.31;77.86;99265.09;106641;1257;59279;-79
2023/10/07 06:20:14;;;;;;;6.70;4.40;;;;;;;10.27;78.43;99258.66;107793;1257;72599;-79
2023/10/07 06:22:51;;;;;;;8.90;5.10;;;;;;;10.25;79.42;99251.80;108756;1257;69166;-80
2023/10/07 06:25:18;;;;;;;9.00;4.80;;;;;;;10.20;79.41;99247.64;108720;1257;71455;-81
2023/10/07 06:27:46;;;;;;;10.70;5.30;;;;;;;10.17;80.32;99242.27;107167;1260;60430;-82
2023/10/07 06:30:21;;;;;;;11.30;4.80;;;;;;;10.16;80.64;99233.55;106144;1256;60626;-80
2023/10/07 06:32:55;;;;;;;9.80;4.60;;;;;;;10.13;80.89;99253.86;106186;1261;73045;-81
2023/10/07 06:35:23;;;;;;;11.60;5.50;;;;;;;10.11;82.08;99233.23;106265;1261;68767;-80
2023/10/07 06:37:52;;;;;;;8.80;5.00;;;;;;;10.05;82.67;99244.00;105776;1258;72477;-81
2023/10/07 06:40:28;;;;;;;9.40;4.80;;;;;;;9.99;83.80;99233.22;106189;1260;60463;-80
2023/10/07 06:42:58;;;;;;;8.80;4.50;;;;;;;9.97;84.30;99224.42;105695;1261;60444;-80
2023/10/07 06:45:39;;;;;;;9.00;4.80;;;;;;;9.98;83.93;99233.83;105608;1257;72575;-80
2023/10/07 06:48:08;;;;;;;12.70;6.20;;;;;;;10.04;83.67;99225.77;105669;1260;68226;-79
2023/10/07 06:50:41;;;;;;;8.70;4.60;;;;;;;10.07;84.67;99219.64;105544;1258;71146;-78
2023/10/07 06:53:12;;;;;;;7.70;4.20;;;;;;;10.11;84.39;99220.34;105601;1262;60909;-79
2023/10/07 06:55:44;;;;;;;8.00;5.20;;;;;;;10.13;84.47;99227.35;105694;1257;60503;-80
2023/10/07 06:58:12;;;;;;;9.20;5.00;;;;;;;10.13;84.27;99228.24;105792;1257;73752;-82
2023/10/07 07:00:49;;;;;;;7.90;5.10;;;;;;;10.14;84.91;99220.23;105767;1260;68479;-83
2023/10/07 07:03:19;;;;;;;11.00;5.90;;;;;;;10.14;85.20;99215.11;105717;1267;72660;-81
2023/10/07 07:05:48;;;;;;;9.50;5.60;;;;;;;10.15;85.09;99207.45;105830;1257;60990;-81
2023/10/07 07:08:15;;;;;;;8.10;5.10;;;;;;;10.16;85.22;99210.77;105929;1256;60507;-81
2023/10/07 07:10:43;;;;;;;8.40;4.70;;;;;;;10.16;85.40;99188.94;105917;1263;72912;-83
2023/10/07 07:13:15;;;;;;;8.60;4.50;;;;;;;10.19;85.40;99199.85;105913;1258;68369;-80
2023/10/07 07:15:43;;;;;;;9.00;4.80;;;;;;;10.19;85.79;99180.53;106108;1261;71989;-79
2023/10/07 07:21:41;;;;;;;11.90;5.40;;;;;;;10.19;86.48;99154.84;104573;1292;600118;-80
2023/10/07 07:24:09;;;;;;;7.60;4.60;;;;;;;10.11;87.88;99151.56;107930;1267;60406;-79
2023/10/07 07:26:38;;;;;;;9.50;4.60;;;;;;;10.04;89.98;99159.55;107008;1267;59216;-77
2023/10/07 07:29:07;;;;;;;9.70;5.80;;;;;;;9.93;91.16;99152.61;105711;1267;69993;-78
2023/10/07 07:31:38;;;;;;;9.60;4.70;;;;;;;9.79;92.35;99150.09;106396;1266;68872;-78
2023/10/07 07:34:27;;;;;;;8.50;4.40;;;;;;;9.71;92.89;99164.97;106040;1268;72764;-77
2023/10/07 07:37:02;;;;;;;11.00;4.80;;;;;;;9.68;93.90;99134.89;104939;1266;61208;-77
2023/10/07 07:39:30;;;;;;;9.10;5.10;;;;;;;9.63;94.94;99137.58;105721;1267;59409;-81
2023/10/07 07:42:15;;;;;;;7.30;4.70;;;;;;;9.61;95.52;99137.75;105960;1260;72008;-80
2023/10/07 07:44:56;;;;;;;8.00;4.70;;;;;;;9.60;96.02;99129.81;106414;1257;68956;-81
2023/10/07 07:47:27;;;;;;;7.80;4.70;;;;;;;9.59;97.14;99110.89;106049;1257;72760;-81
2023/10/07 07:50:06;;;;;;;9.60;5.30;;;;;;;9.55;97.59;99117.29;106733;1254;60656;-80
2023/10/07 07:52:34;;;;;;;8.10;4.40;;;;;;;9.54;97.91;99131.08;106303;1254;59717;-82
2023/10/07 07:55:01;;;;;;;9.70;5.60;;;;;;;9.51;98.15;99117.61;106422;1259;73104;-83
2023/10/07 07:57:29;;;;;;;9.00;4.90;;;;;;;9.48;99.25;99110.85;106259;1256;68709;-81
2023/10/07 07:59:58;;;;;;;10.80;5.20;;;;;;;9.45;100.00;99112.77;106254;1254;72485;-81
2023/10/07 08:02:26;;;;;;;11.10;5.40;;;;;;;9.43;100.00;99121.11;106187;1254;61603;-81
2023/10/07 08:05:02;;;;;;;10.40;5.00;;;;;;;9.42;100.00;99098.31;106074;1257;59640;-80
2023/10/07 08:07:31;;;;;;;8.20;5.40;;;;;;;9.42;100.00;99104.98;106265;1254;72291;-80
2023/10/07 08:09:58;;;;;;;8.00;5.70;;;;;;;9.43;100.00;99099.64;106391;1257;69058;-80
2023/10/07 08:12:31;;;;;;;16.80;4.60;;;;;;;9.44;100.00;99083.02;106280;1253;70782;-84
2023/10/07 08:14:59;;;;;;;11.40;4.90;;;;;;;9.43;100.00;99084.39;106543;1254;60359;-85
2023/10/07 08:17:27;;;;;;;11.10;5.70;;;;;;;9.39;100.00;99071.30;106845;1254;59613;-86
2023/10/07 08:19:57;;;;;;;7.20;4.70;;;;;;;9.34;100.00;99079.55;107989;1257;73123;-84
2023/10/07 08:22:27;;;;;;;8.90;5.10;;;;;;;9.33;100.00;99070.73;108193;1253;68783;-83
2023/10/07 08:25:00;;;;;;;8.70;5.30;;;;;;;9.36;100.00;99072.80;108984;1254;71130;-84
2023/10/07 08:27:49;;;;;;;10.50;5.40;;;;;;;9.41;100.00;99065.85;108792;1254;60712;-84
2023/10/07 08:30:37;;;;;;;9.00;5.10;;;;;;;9.47;100.00;99060.31;107685;1254;60238;-84
2023/10/07 08:33:06;;;;;;;8.40;4.90;;;;;;;9.48;100.00;99065.83;107703;1254;71410;-85
2023/10/07 08:35:34;;;;;;;9.30;5.10;;;;;;;9.51;100.00;99054.97;106983;1253;69385;-85
2023/10/07 08:38:03;;;;;;;8.80;4.90;;;;;;;9.51;100.00;99054.64;107587;1254;73649;-83
2023/10/07 08:40:43;;;;;;;8.80;5.20;;;;;;;9.53;100.00;99038.92;106946;1254;60573;-83
2023/10/07 08:43:18;;;;;;;11.10;5.60;;;;;;;9.55;100.00;99048.66;107290;1254;59606;-83
2023/10/07 08:45:47;;;;;;;11.60;4.50;;;;;;;9.57;100.00;99028.98;107020;1253;71794;-82
2023/10/07 08:48:16;;;;;;;8.60;5.00;;;;;;;9.57;100.00;99036.26;108530;1254;70052;-83
2023/10/07 08:50:58;;;;;;;9.50;5.40;;;;;;;9.58;100.00;99034.23;108085;1254;71935;-81
2023/10/07 08:53:26;;;;;;;7.90;5.00;;;;;;;9.60;100.00;99033.60;107615;1254;60483;-81
2023/10/07 08:55:57;;;;;;;9.30;4.70;;;;;;;9.63;100.00;99009.25;107363;1254;59656;-82
2023/10/07 08:58:27;;;;;;;9.00;4.90;;;;;;;9.68;100.00;99022.70;107169;1254;73480;-80
2023/10/07 09:00:55;;;;;;;9.30;5.10;;;;;;;9.73;100.00;99004.05;107428;1254;70163;-80
2023/10/07 09:03:28;;;;;;;11.70;4.70;;;;;;;9.78;100.00;99008.16;107114;1253;71478;-81
2023/10/07 09:06:06;;;;;;;10.10;5.80;;;;;;;9.85;100.00;98997.02;108105;1257;60384;-80
2023/10/07 09:08:33;;;;;;;8.50;4.90;;;;;;;9.90;100.00;98999.18;107023;1254;60025;-81
2023/10/07 09:11:08;;;;;;;8.20;4.80;;;;;;;9.95;100.00;99005.90;107220;1254;71605;-81
2023/10/07 09:13:38;;;;;;;8.50;4.60;;;;;;;9.99;100.00;99000.94;106872;1254;70539;-78
2023/10/07 09:16:10;;;;;;;9.00;5.50;;;;;;;10.01;100.00;98988.85;106490;1256;70973;-81
2023/10/07 09:18:41;;;;;;;8.40;5.60;;;;;;;10.04;100.00;98987.05;106442;1254;60494;-79
2023/10/07 09:21:19;;;;;;;10.80;5.20;;;;;;;10.08;100.00;98971.09;106108;1254;60395;-79
2023/10/07 09:23:52;;;;;;;7.70;5.40;;;;;;;10.14;100.00;98973.55;106968;1254;73154;-79
2023/10/07 09:26:30;;;;;;;7.30;4.90;;;;;;;10.18;100.00;98970.55;108170;1253;70409;-81
2023/10/07 09:29:14;;;;;;;7.10;4.80;;;;;;;10.26;100.00;98963.57;107514;1255;70600;-81
2023/10/07 09:31:42;;;;;;;7.30;5.20;;;;;;;10.36;100.00;98968.99;106465;1257;61901;-81
2023/10/07 09:34:10;;;;;;;7.50;4.80;;;;;;;10.45;100.00;98954.56;106355;1254;60158;-81
2023/10/07 09:36:40;;;;;;;10.30;5.10;;;;;;;10.55;100.00;98945.44;106219;1259;72863;-81
2023/10/07 09:41:44;;;;;;;10.30;5.40;;;;;;;10.73;100.00;98939.80;106121;1254;71489;-80
2023/10/07 09:44:26;;;;;;;13.80;6.30;;;;;;;10.80;99.75;98949.18;106147;1253;63913;-80
2023/10/07 09:46:55;;;;;;;8.80;5.90;;;;;;;10.85;98.81;98944.23;105945;1254;59768;-79
2023/10/07 09:49:25;;;;;;;6.90;5.40;;;;;;;10.90;98.53;98930.14;106175;1254;72911;-81
2023/10/07 09:52:03;;;;;;;8.00;5.20;;;;;;;10.97;97.47;98934.66;106245;1254;72600;-80
2023/10/07 09:55:21;;;;;;;7.70;4.90;;;;;;;11.06;96.88;98936.04;106021;1258;71777;-80
2023/10/07 09:57:56;;;;;;;11.40;5.70;;;;;;;11.17;94.50;98918.45;105993;1254;60531;-80
2023/10/07 10:01:02;;;;;;;7.40;4.90;;;;;;;11.29;94.57;98907.28;106582;1255;59522;-79
2023/10/07 10:03:59;;;;;;;6.70;5.00;;;;;;;11.39;93.76;98892.76;106668;1254;73043;-79
2023/10/07 10:06:55;;;;;;;7.00;4.80;;;;;;;11.48;93.02;98883.94;108776;1254;68706;-78
2023/10/07 10:09:27;;;;;;;9.10;4.90;;;;;;;11.58;91.61;98875.56;108334;1256;71433;-79
2023/10/07 10:12:17;;;;;;;6.80;4.30;;;;;;;11.70;92.25;98866.76;107160;1259;60484;-78
2023/10/07 10:14:56;;;;;;;9.90;5.70;;;;;;;11.81;90.36;98857.23;108051;1254;59576;-78
2023/10/07 10:17:48;;;;;;;9.10;4.80;;;;;;;11.99;89.00;98856.48;107488;1253;71465;-77
2023/10/07 10:20:18;;;;;;;9.50;5.50;;;;;;;12.15;88.01;98851.94;108183;1254;70062;-79
2023/10/07 10:22:59;;;;;;;7.90;5.00;;;;;;;12.29;86.96;98842.28;107937;1254;71692;-76
2023/10/07 10:25:36;;;;;;;9.90;4.60;;;;;;;12.43;86.58;98837.71;107933;1254;62456;-75
2023/10/07 10:28:08;;;;;;;8.50;5.00;;;;;;;12.52;84.65;98845.52;108744;1253;59180;-79
2023/10/07 10:30:53;;;;;;;10.70;5.20;;;;;;;12.64;84.35;98833.58;107601;1254;71784;-79
2023/10/07 10:33:23;;;;;;;7.20;4.50;;;;;;;12.75;82.79;98828.79;106613;1256;69018;-79
2023/10/07 10:35:52;;;;;;;7.70;4.80;;;;;;;12.87;82.74;98819.80;106597;1253;75073;-82
2023/10/07 10:38:19;;;;;;;8.40;5.00;;;;;;;12.95;81.00;98826.08;106558;1254;59682;-81
2023/10/07 10:40:47;;;;;;;8.70;5.00;;;;;;;13.01;81.37;98819.10;106455;1256;59665;-80
2023/10/07 10:43:24;;;;;;;8.70;4.30;;;;;;;13.10;80.39;98816.30;106383;1260;73073;-80
2023/10/07 10:46:04;;;;;;;8.20;5.20;;;;;;;13.19;80.45;98808.16;106472;1262;69432;-80
2023/10/07 10:48:38;;;;;;;11.60;5.50;;;;;;;13.25;79.25;98794.05;106935;1260;71709;-81
2023/10/07 10:51:09;;;;;;;9.20;5.20;;;;;;;13.28;79.30;98794.86;106366;1254;60735;-80
2023/10/07 10:53:40;;;;;;;9.40;4.80;;;;;;;13.37;79.34;98795.48;106340;1254;59837;-80
2023/10/07 10:56:09;;;;;;;8.50;4.90;;;;;;;13.46;77.96;98795.66;106374;1256;72701;-80
2023/10/07 10:58:37;;;;;;;7.60;4.80;;;;;;;13.54;79.06;98787.63;106234;1254;68770;-81
2023/10/07 11:01:07;;;;;;;8.60;4.50;;;;;;;13.62;78.31;98795.93;106320;1254;74036;-80
2023/10/07 11:03:38;;;;;;;8.00;4.50;;;;;;;13.68;77.87;98782.70;106658;1254;59811;-80
2023/10/07 11:06:07;;;;;;;9.40;4.90;;;;;;;13.72;78.08;98786.73;106490;1258;59619;-78
2023/10/07 11:08:36;;;;;;;6.20;3.80;;;;;;;13.84;77.57;98779.79;106232;1254;71903;-79
2023/10/07 11:11:10;;;;;;;7.30;4.20;;;;;;;13.95;76.87;98779.98;106888;1254;70094;-81
2023/10/07 11:13:43;;;;;;;6.80;4.10;;;;;;;14.01;76.82;98774.45;106855;1254;71536;-81
2023/10/07 11:16:12;;;;;;;10.40;4.90;;;;;;;14.08;75.88;98771.73;106492;1254;61745;-81
2023/10/07 11:18:45;;;;;;;9.50;4.40;;;;;;;14.20;76.52;98766.94;106184;1260;60126;-82
2023/10/07 11:21:15;;;;;;;11.20;5.20;;;;;;;14.28;75.51;98765.61;107286;1254;73401;-83
2023/10/07 11:23:49;;;;;;;7.70;4.60;;;;;;;14.33;75.69;98763.80;107109;1254;69174;-84
2023/10/07 11:26:17;;;;;;;8.50;4.50;;;;;;;14.39;75.83;98771.52;107373;1253;71401;-82
2023/10/07 11:28:48;;;;;;;8.70;4.80;;;;;;;14.48;75.76;98766.29;107976;1253;60090;-79
2023/10/07 11:31:30;;;;;;;10.40;3.90;;;;;;;14.54;74.46;98767.23;108820;1254;59491;-79
2023/10/07 11:33:59;;;;;;;10.10;4.60;;;;;;;14.57;74.25;98762.83;107459;1256;73930;-83
2023/10/07 11:36:27;;;;;;;6.60;4.40;;;;;;;14.65;74.36;98755.20;107316;1253;70575;-81
2023/10/07 11:38:56;;;;;;;9.00;4.00;;;;;;;14.71;73.33;98759.84;108267;1254;72647;-81
2023/10/07 11:41:24;;;;;;;6.70;3.80;;;;;;;14.75;73.82;98765.73;108001;1257;60455;-82
2023/10/07 11:43:52;;;;;;;7.60;3.70;;;;;;;14.83;74.07;98767.48;107265;1254;60395;-83
2023/10/07 11:46:20;;;;;;;8.80;5.00;;;;;;;14.84;74.52;98767.67;106620;1254;72606;-83
2023/10/07 11:48:48;;;;;;;8.00;3.60;;;;;;;14.83;74.59;98765.88;106409;1257;69670;-83
2023/10/07 11:51:15;;;;;;;10.00;4.20;;;;;;;14.87;74.12;98768.52;106513;1254;71823;-83
2023/10/07 11:53:43;;;;;;;8.00;4.20;;;;;;;14.88;74.29;98781.25;106285;1255;61755;-82
2023/10/07 11:56:11;;;;;;;6.50;4.40;;;;;;;14.89;74.26;98778.94;106201;1254;60495;-83
2023/10/07 11:58:41;;;;;;;5.60;3.60;;;;;;;14.85;75.71;98781.11;105941;1258;73902;-82
2023/10/07 12:01:11;;;;;;;7.40;3.90;;;;;;;14.86;76.46;98776.66;105862;1259;68905;-83
2023/10/07 12:03:43;;;;;;;7.00;3.80;;;;;;;14.87;77.32;98775.95;106322;1254;74020;-82
2023/10/07 12:06:11;;;;;;;4.80;3.70;;;;;;;14.85;78.07;98773.99;106155;1257;60424;-82
2023/10/07 12:08:39;;;;;;;6.60;4.00;;;;;;;14.82;78.31;98786.90;106829;1253;60355;-82
2023/10/07 12:11:08;;;;;;;5.40;3.20;;;;;;;14.72;80.46;98776.70;107257;1254;72665;-82
2023/10/07 12:13:36;;;;;;;6.70;3.60;;;;;;;14.57;81.87;98769.77;107316;1252;69031;-84
2023/10/07 12:16:03;;;;;;;8.90;4.00;;;;;;;14.49;83.55;98771.13;106477;1252;72333;-82
2023/10/07 12:18:33;;;;;;;7.90;3.60;;;;;;;14.41;84.85;98770.58;106121;1252;60502;-81
2023/10/07 12:21:01;;;;;;;5.50;3.10;;;;;;;14.34;85.70;98768.28;105963;1253;60421;-82
2023/10/07 12:23:33;;;;;;;4.90;3.40;;;;;;;14.29;86.77;98769.06;106427;1257;72758;-82
2023/10/07 12:26:01;;;;;;;5.10;3.20;;;;;;;14.21;86.85;98772.36;106422;1256;70215;-83
2023/10/07 12:28:30;;;;;;;6.10;3.50;;;;;;;14.17;87.59;98775.09;106426;1257;71785;-80
2023/10/07 12:30:58;;;;;;;6.90;3.20;;;;;;;14.15;88.15;98777.29;108862;1253;61834;-80
2023/10/07 12:33:26;;;;;;;5.70;3.10;;;;;;;14.09;88.43;98772.30;109048;1254;58741;-81